createdAt,value
2023-04-13T00:00:26.709Z,88.67
2023-04-13T00:05:53.457Z,88.65
2023-04-13T00:11:19.935Z,89.64
2023-04-13T00:16:24.825Z,89.82
2023-04-13T00:22:22.038Z,88.95
2023-04-13T00:27:30.762Z,88.70
2023-04-13T00:32:37.473Z,89.10
2023-04-13T00:37:43.246Z,89.30
2023-04-13T00:43:06.967Z,89.68
2023-04-13T00:48:13.720Z,89.47
2023-04-13T00:53:20.715Z,89.80
2023-04-13T00:58:28.284Z,89.42
2023-04-13T01:03:31.891Z,88.73
2023-04-13T01:09:01.599Z,89.05
2023-04-13T01:14:24.552Z,89.96
2023-04-13T01:19:41.475Z,90.15
2023-04-13T01:25:31.779Z,90.83
2023-04-13T01:31:05.637Z,91.11
2023-04-13T01:36:17.057Z,91.33
2023-04-13T01:41:25.722Z,91.29
2023-04-13T01:46:57.473Z,90.59
2023-04-13T01:52:41.383Z,90.43
2023-04-13T01:58:01.079Z,91.03
2023-04-13T02:03:12.409Z,90.81
2023-04-13T02:08:33.564Z,90.69
2023-04-13T02:13:53.302Z,90.84
2023-04-13T02:18:58.823Z,90.91
2023-04-13T02:24:09.037Z,90.45
2023-04-13T02:29:28.809Z,90.89
2023-04-13T02:34:38.161Z,91.39
2023-04-13T02:40:14.394Z,91.24
2023-04-13T02:45:30.857Z,91.44
2023-04-13T02:50:34.382Z,91.73
2023-04-13T02:55:50.600Z,92.08
2023-04-13T03:00:54.675Z,92.04
2023-04-13T03:06:01.710Z,90.80
2023-04-13T03:11:33.653Z,88.75
2023-04-13T03:16:44.092Z,89.66
2023-04-13T03:21:48.495Z,89.74
2023-04-13T03:26:58.124Z,89.70
2023-04-13T03:32:08.493Z,91.22
2023-04-13T03:37:13.232Z,91.92
2023-04-13T03:42:16.754Z,92.18
2023-04-13T03:47:26.801Z,92.14
2023-04-13T03:52:36.985Z,91.67
2023-04-13T03:57:41.018Z,90.85
2023-04-13T04:03:17.016Z,91.94
2023-04-13T04:08:43.948Z,93.22
2023-04-13T04:14:02.407Z,94.68
2023-04-13T04:19:37.553Z,95.78
2023-04-13T04:24:44.449Z,96.70
2023-04-13T04:30:22.106Z,97.00
2023-04-13T04:35:33.572Z,97.19
2023-04-13T04:40:38.281Z,97.71
2023-04-13T04:45:47.127Z,98.60
2023-04-13T04:51:08.557Z,99.31
2023-04-13T04:56:23.328Z,99.92
2023-04-13T05:01:52.428Z,100.00
2023-04-13T05:06:59.390Z,100.00
2023-04-13T05:12:06.140Z,99.99
2023-04-13T05:17:12.635Z,100.00
2023-04-13T05:22:17.738Z,100.00
2023-04-13T05:27:46.094Z,100.00
2023-04-13T05:33:11.329Z,99.71
2023-04-13T05:38:19.101Z,97.24
2023-04-13T05:43:23.994Z,93.28
2023-04-13T05:48:34.276Z,90.18
2023-04-13T05:53:40.099Z,86.65
2023-04-13T05:58:46.409Z,80.94
2023-04-13T06:04:14.980Z,78.24
2023-04-13T06:10:00.940Z,74.16
2023-04-13T06:15:05.070Z,71.42
2023-04-13T06:20:09.013Z,71.35
2023-04-13T06:25:13.872Z,70.16
2023-04-13T06:30:18.322Z,68.76
2023-04-13T06:35:21.935Z,66.10
2023-04-13T06:40:27.751Z,64.29
2023-04-13T06:45:37.350Z,61.66
2023-04-13T06:50:44.874Z,61.20
2023-04-13T06:55:48.781Z,60.17
2023-04-13T07:00:52.308Z,59.17
2023-04-13T07:05:56.211Z,59.54
2023-04-13T07:10:59.980Z,58.37
2023-04-13T07:16:12.171Z,58.87
2023-04-13T07:21:18.307Z,59.15
2023-04-13T07:26:30.231Z,58.71
2023-04-13T07:31:35.227Z,58.77
2023-04-13T07:36:39.239Z,59.45
2023-04-13T07:41:46.680Z,57.67
2023-04-13T07:46:52.798Z,58.26
2023-04-13T07:51:58.920Z,58.74
2023-04-13T07:57:04.191Z,58.46
2023-04-13T08:02:08.452Z,58.37
2023-04-13T08:07:13.152Z,58.64
2023-04-13T08:12:19.571Z,58.58
2023-04-13T08:17:23.765Z,58.06
2023-04-13T08:22:27.286Z,56.95
2023-04-13T08:27:31.427Z,57.35
2023-04-13T08:32:34.736Z,56.98
2023-04-13T08:37:39.661Z,57.94
2023-04-13T08:42:44.498Z,59.12
2023-04-13T08:47:50.061Z,58.24
2023-04-13T08:52:55.787Z,58.78
2023-04-13T08:58:03.897Z,58.63
2023-04-13T09:03:11.112Z,58.18
2023-04-13T09:08:21.342Z,57.49
2023-04-13T09:13:26.817Z,57.23
2023-04-13T09:18:35.743Z,56.82
2023-04-13T09:23:54.859Z,55.62
2023-04-13T09:28:58.648Z,55.73
2023-04-13T09:34:02.275Z,56.28
2023-04-13T09:39:05.898Z,54.01
2023-04-13T09:44:20.680Z,54.02
2023-04-13T09:49:36.710Z,54.17
2023-04-13T09:54:40.784Z,53.91
2023-04-13T10:00:16.054Z,54.75
2023-04-13T10:05:39.300Z,54.17
2023-04-13T10:10:50.861Z,51.06
2023-04-13T10:16:17.353Z,51.77
2023-04-13T10:21:20.875Z,51.45
2023-04-13T10:26:34.685Z,49.28
2023-04-13T10:31:44.433Z,49.61
2023-04-13T10:36:48.100Z,48.69
2023-04-13T10:42:08.950Z,48.78
2023-04-13T10:47:17.762Z,47.64
2023-04-13T10:52:21.725Z,48.38
2023-04-13T10:57:25.043Z,47.90
2023-04-13T11:02:32.790Z,46.95
2023-04-13T11:07:38.974Z,45.81
2023-04-13T11:12:53.386Z,46.02
2023-04-13T11:17:58.405Z,45.77
2023-04-13T11:23:04.454Z,45.20
2023-04-13T11:28:09.105Z,45.89
2023-04-13T11:33:12.376Z,43.33
2023-04-13T11:38:19.356Z,41.51
2023-04-13T11:43:22.609Z,41.80
2023-04-13T11:48:27.025Z,40.47
2023-04-13T11:53:32.351Z,41.81
2023-04-13T11:58:39.686Z,39.11
2023-04-13T12:03:59.264Z,38.91
2023-04-13T12:09:12.342Z,40.39
2023-04-13T12:14:49.889Z,41.11
2023-04-13T12:19:55.358Z,41.33
2023-04-13T12:25:01.948Z,42.38
2023-04-13T12:30:06.597Z,41.92
2023-04-13T12:35:10.640Z,40.80
2023-04-13T12:40:15.729Z,40.75
2023-04-13T12:45:19.210Z,40.44
2023-04-13T12:50:22.692Z,40.60
2023-04-13T12:55:30.042Z,39.27
2023-04-13T13:00:33.978Z,39.06
2023-04-13T13:05:37.392Z,38.82
2023-04-13T13:10:41.636Z,39.79
2023-04-13T13:15:45.200Z,40.84
2023-04-13T13:20:54.480Z,40.34
2023-04-13T13:31:09.053Z,38.17
2023-04-13T13:36:14.486Z,38.10
2023-04-13T13:41:20.014Z,38.70
2023-04-13T13:46:23.596Z,38.83
2023-04-13T13:51:28.456Z,38.95
2023-04-13T13:56:32.607Z,38.82
2023-04-13T14:01:36.141Z,38.87
2023-04-13T14:06:39.604Z,38.38
2023-04-13T14:11:43.077Z,38.67
2023-04-13T14:16:46.319Z,38.13
2023-04-13T14:21:50.487Z,37.91
2023-04-13T14:26:53.856Z,37.49
2023-04-13T14:31:57.124Z,38.00
2023-04-13T14:37:00.734Z,37.73
2023-04-13T14:42:04.300Z,37.95
2023-04-13T14:47:09.722Z,36.58
2023-04-13T14:52:14.717Z,36.31
2023-04-13T14:57:18.603Z,36.14
2023-04-13T15:02:22.088Z,36.39
2023-04-13T15:07:30.002Z,36.38
2023-04-13T15:12:33.281Z,36.45
2023-04-13T15:17:36.652Z,37.22
2023-04-13T15:22:40.157Z,37.33
2023-04-13T15:27:43.593Z,37.60
2023-04-13T15:32:48.604Z,37.17
2023-04-13T15:37:52.243Z,36.52
2023-04-13T15:42:55.538Z,36.99
2023-04-13T15:47:59.015Z,37.29
2023-04-13T15:53:02.282Z,37.40
2023-04-13T15:58:06.403Z,37.37
2023-04-13T16:03:09.808Z,37.20
2023-04-13T16:08:13.276Z,36.94
2023-04-13T16:13:20.012Z,37.22
2023-04-13T16:18:26.385Z,37.16
2023-04-13T16:23:35.822Z,37.56
2023-04-13T16:28:39.148Z,38.59
2023-04-13T16:33:42.515Z,39.32
2023-04-13T16:38:46.689Z,39.44
2023-04-13T16:43:50.244Z,39.70
2023-04-13T16:48:53.908Z,41.09
2023-04-13T16:53:57.198Z,43.09
2023-04-13T16:59:01.532Z,44.77
2023-04-13T17:04:05.755Z,45.39
2023-04-13T17:09:10.161Z,46.21
2023-04-13T17:14:13.511Z,45.86
2023-04-13T17:19:17.073Z,46.40
2023-04-13T17:24:20.418Z,46.88
2023-04-13T17:29:23.704Z,47.25
2023-04-13T17:34:27.200Z,48.08
2023-04-13T17:39:30.540Z,49.26
2023-04-13T17:44:34.193Z,49.97
2023-04-13T17:49:41.859Z,50.74
2023-04-13T17:54:48.527Z,51.47
2023-04-13T18:00:16.053Z,52.27
2023-04-13T18:05:22.496Z,53.21
2023-04-13T18:10:25.944Z,54.24
2023-04-13T18:15:29.667Z,54.77
2023-04-13T18:20:35.929Z,55.85
2023-04-13T18:25:39.318Z,56.31
2023-04-13T18:30:44.679Z,56.37
2023-04-13T18:35:48.179Z,56.67
2023-04-13T18:40:51.804Z,57.29
2023-04-13T18:46:16.567Z,57.88
2023-04-13T18:51:19.892Z,58.53
2023-04-13T18:56:24.496Z,58.95
2023-04-13T19:01:27.828Z,59.40
2023-04-13T19:06:31.727Z,60.15
2023-04-13T19:12:07.799Z,60.62
2023-04-13T19:17:13.660Z,61.52
2023-04-13T19:22:19.805Z,62.39
2023-04-13T19:27:24.342Z,63.21
2023-04-13T19:32:31.320Z,63.86
2023-04-13T19:37:37.184Z,64.45
2023-04-13T19:42:47.017Z,65.03
2023-04-13T19:47:50.818Z,65.76
2023-04-13T19:53:05.311Z,66.28
2023-04-13T19:58:09.255Z,66.70
2023-04-13T20:03:13.918Z,67.42
2023-04-13T20:08:17.461Z,67.84
2023-04-13T20:13:24.017Z,67.74
2023-04-13T20:18:31.691Z,68.02
2023-04-13T20:23:36.351Z,68.19
2023-04-13T20:28:39.805Z,68.49
2023-04-13T20:33:45.306Z,68.92
2023-04-13T20:38:48.813Z,69.17
2023-04-13T20:43:52.244Z,69.43
2023-04-13T20:48:55.826Z,69.99
2023-04-13T20:54:01.649Z,70.35
2023-04-13T20:59:05.452Z,70.74
2023-04-13T21:04:09.177Z,70.99
2023-04-13T21:09:12.708Z,71.69
2023-04-13T21:14:16.521Z,72.57
2023-04-13T21:19:25.528Z,73.20
2023-04-13T21:24:28.814Z,73.48
2023-04-13T21:29:36.556Z,74.41
2023-04-13T21:34:43.144Z,75.02
2023-04-13T21:39:46.516Z,75.26
2023-04-13T21:44:49.931Z,76.45
2023-04-13T21:50:03.296Z,76.61
2023-04-13T21:55:41.182Z,77.13
2023-04-13T22:00:44.623Z,77.67
2023-04-13T22:06:33.005Z,78.52
2023-04-13T22:11:42.447Z,79.62
2023-04-13T22:16:49.022Z,80.28
2023-04-13T22:21:55.487Z,80.56
2023-04-13T22:27:19.424Z,81.93
2023-04-13T22:32:22.798Z,82.31
2023-04-13T22:37:31.389Z,82.76
2023-04-13T22:42:38.075Z,83.55
2023-04-13T22:47:41.723Z,83.91
2023-04-13T22:52:49.124Z,83.90
2023-04-13T22:58:23.095Z,84.15
2023-04-13T23:03:35.993Z,84.36
2023-04-13T23:08:39.467Z,85.05
2023-04-13T23:13:54.064Z,85.58
2023-04-13T23:19:21.742Z,85.60
2023-04-13T23:24:27.706Z,86.01
2023-04-13T23:29:31.217Z,86.52
2023-04-13T23:34:34.558Z,87.70
2023-04-13T23:39:38.161Z,88.00
2023-04-13T23:44:42.171Z,88.33
2023-04-13T23:49:46.941Z,88.65
2023-04-13T23:54:50.224Z,88.57
2023-04-13T23:59:57.421Z,89.19
